sensor_id;sensor_type;location;lat;lon;timestamp;pressure;altitude;pressure_sealevel;temperature;humidity
76590;BME280;65471;55.908;37.880;2022-12-01T00:01:18;102460.19;;;-14.11;85.40
76590;BME280;65471;55.908;37.880;2022-12-01T00:03:45;102460.25;;;-14.27;84.59
76590;BME280;65471;55.908;37.880;2022-12-01T00:06:17;102461.13;;;-14.32;85.56
76590;BME280;65471;55.908;37.880;2022-12-01T00:08:46;102458.53;;;-14.26;85.38
76590;BME280;65471;55.908;37.880;2022-12-01T00:11:33;102463.78;;;-14.43;85.76
76590;BME280;65471;55.908;37.880;2022-12-01T00:14:00;102459.47;;;-14.56;85.52
76590;BME280;65471;55.908;37.880;2022-12-01T00:16:27;102456.84;;;-14.46;85.61
76590;BME280;65471;55.908;37.880;2022-12-01T00:18:54;102454.16;;;-14.21;86.43
76590;BME280;65471;55.908;37.880;2022-12-01T00:21:23;102454.16;;;-14.15;86.26
76590;BME280;65471;55.908;37.880;2022-12-01T00:23:52;102457.53;;;-13.97;85.87
76590;BME280;65471;55.908;37.880;2022-12-01T00:26:19;102454.28;;;-14.58;85.01
76590;BME280;65471;55.908;37.880;2022-12-01T00:28:56;102451.53;;;-14.19;85.39
76590;BME280;65471;55.908;37.880;2022-12-01T00:31:24;102456.06;;;-14.66;85.97
76590;BME280;65471;55.908;37.880;2022-12-01T00:33:51;102449.09;;;-14.58;86.58
76590;BME280;65471;55.908;37.880;2022-12-01T00:36:18;102445.53;;;-14.32;85.82
76590;BME280;65471;55.908;37.880;2022-12-01T00:38:45;102446.47;;;-14.47;86.06
76590;BME280;65471;55.908;37.880;2022-12-01T00:41:13;102440.41;;;-14.46;85.63
76590;BME280;65471;55.908;37.880;2022-12-01T00:43:40;102445.41;;;-14.03;85.19
76590;BME280;65471;55.908;37.880;2022-12-01T00:46:07;102451.59;;;-14.29;85.79
76590;BME280;65471;55.908;37.880;2022-12-01T00:48:34;102449.03;;;-14.41;86.14
76590;BME280;65471;55.908;37.880;2022-12-01T00:51:01;102439.53;;;-14.45;85.75
76590;BME280;65471;55.908;37.880;2022-12-01T00:53:28;102446.47;;;-14.49;84.79
76590;BME280;65471;55.908;37.880;2022-12-01T00:55:55;102437.75;;;-14.32;85.85
76590;BME280;65471;55.908;37.880;2022-12-01T00:58:22;102451.78;;;-14.70;85.22
76590;BME280;65471;55.908;37.880;2022-12-01T01:00:57;102450.69;;;-14.20;85.94
76590;BME280;65471;55.908;37.880;2022-12-01T01:03:25;102437.78;;;-14.40;85.50
76590;BME280;65471;55.908;37.880;2022-12-01T01:05:52;102443.97;;;-14.75;84.66
76590;BME280;65471;55.908;37.880;2022-12-01T01:08:19;102440.41;;;-14.46;85.20
76590;BME280;65471;55.908;37.880;2022-12-01T01:10:47;102442.09;;;-14.36;85.39
76590;BME280;65471;55.908;37.880;2022-12-01T01:13:14;102443.84;;;-14.41;85.31
76590;BME280;65471;55.908;37.880;2022-12-01T01:15:41;102438.81;;;-14.89;84.85
76590;BME280;65471;55.908;37.880;2022-12-01T01:18:09;102440.44;;;-14.57;85.63
76590;BME280;65471;55.908;37.880;2022-12-01T01:20:36;102453.47;;;-14.68;84.95
76590;BME280;65471;55.908;37.880;2022-12-01T01:23:03;102443.13;;;-14.91;85.88
76590;BME280;65471;55.908;37.880;2022-12-01T01:25:31;102442.22;;;-14.78;84.86
76590;BME280;65471;55.908;37.880;2022-12-01T01:27:58;102439.56;;;-14.51;84.82
76590;BME280;65471;55.908;37.880;2022-12-01T01:30:25;102446.59;;;-14.83;85.09
76590;BME280;65471;55.908;37.880;2022-12-01T01:32:52;102449.97;;;-14.57;85.72
76590;BME280;65471;55.908;37.880;2022-12-01T01:35:18;102451.75;;;-14.72;84.79
76590;BME280;65471;55.908;37.880;2022-12-01T01:37:45;102448.31;;;-14.80;85.40
76590;BME280;65471;55.908;37.880;2022-12-01T01:40:12;102446.59;;;-14.86;85.15
76590;BME280;65471;55.908;37.880;2022-12-01T01:42:38;102450.06;;;-14.87;84.92
76590;BME280;65471;55.908;37.880;2022-12-01T01:45:18;102444.84;;;-14.82;84.89
76590;BME280;65471;55.908;37.880;2022-12-01T01:47:45;102435.34;;;-14.94;86.00
76590;BME280;65471;55.908;37.880;2022-12-01T01:50:15;102439.63;;;-14.79;85.13
76590;BME280;65471;55.908;37.880;2022-12-01T01:52:47;102444.84;;;-14.81;85.32
76590;BME280;65471;55.908;37.880;2022-12-01T01:55:16;102445.78;;;-15.16;85.18
76590;BME280;65471;55.908;37.880;2022-12-01T01:57:44;102444.84;;;-14.81;85.73
76590;BME280;65471;55.908;37.880;2022-12-01T02:00:17;102450.91;;;-14.74;85.16
76590;BME280;65471;55.908;37.880;2022-12-01T02:02:46;102456.13;;;-14.89;85.48
76590;BME280;65471;55.908;37.880;2022-12-01T02:05:18;102444.00;;;-14.95;85.77
76590;BME280;65471;55.908;37.880;2022-12-01T02:07:46;102438.69;;;-14.55;84.81
76590;BME280;65471;55.908;37.880;2022-12-01T02:10:15;102450.88;;;-14.66;84.71
76590;BME280;65471;55.908;37.880;2022-12-01T02:15:49;102450.06;;;-15.18;85.22
76590;BME280;65471;55.908;37.880;2022-12-01T02:27:00;102450.06;;;-14.93;84.91
76590;BME280;65471;55.908;37.880;2022-12-01T02:29:40;102445.75;;;-15.28;84.51
76590;BME280;65471;55.908;37.880;2022-12-01T02:32:36;102440.59;;;-15.31;83.53
76590;BME280;65471;55.908;37.880;2022-12-01T02:35:22;102436.25;;;-15.15;83.16
76590;BME280;65471;55.908;37.880;2022-12-01T02:40:31;102438.88;;;-15.26;83.88
76590;BME280;65471;55.908;37.880;2022-12-01T02:43:09;102438.84;;;-15.48;84.09
76590;BME280;65471;55.908;37.880;2022-12-01T02:48:18;102441.44;;;-15.41;83.17
76590;BME280;65471;55.908;37.880;2022-12-01T02:50:46;102440.56;;;-15.09;84.75
76590;BME280;65471;55.908;37.880;2022-12-01T02:53:16;102444.03;;;-15.07;84.80
76590;BME280;65471;55.908;37.880;2022-12-01T02:55:48;102437.97;;;-15.11;84.88
76590;BME280;65471;55.908;37.880;2022-12-01T02:58:15;102434.53;;;-15.44;84.44
76590;BME280;65471;55.908;37.880;2022-12-01T03:00:55;102435.41;;;-15.37;84.98
76590;BME280;65471;55.908;37.880;2022-12-01T03:03:46;102434.53;;;-15.87;84.88
76590;BME280;65471;55.908;37.880;2022-12-01T03:06:23;102438.00;;;-15.36;85.15
76590;BME280;65471;55.908;37.880;2022-12-01T03:09:13;102431.94;;;-15.50;85.53
76590;BME280;65471;55.908;37.880;2022-12-01T03:11:55;102433.66;;;-15.58;85.46
76590;BME280;65471;55.908;37.880;2022-12-01T03:16:56;102429.31;;;-15.63;84.80
76590;BME280;65471;55.908;37.880;2022-12-01T03:20:39;102428.47;;;-15.51;84.72
76590;BME280;65471;55.908;37.880;2022-12-01T03:22:52;102425.00;;;-15.71;85.02
76590;BME280;65471;55.908;37.880;2022-12-01T03:25:23;102430.19;;;-15.53;85.53
76590;BME280;65471;55.908;37.880;2022-12-01T03:27:52;102425.03;;;-15.53;83.93
76590;BME280;65471;55.908;37.880;2022-12-01T03:30:42;102434.53;;;-15.69;83.93
76590;BME280;65471;55.908;37.880;2022-12-01T03:33:19;102436.22;;;-15.65;83.26
76590;BME280;65471;55.908;37.880;2022-12-01T03:36:19;102433.66;;;-15.60;83.49
76590;BME280;65471;55.908;37.880;2022-12-01T03:38:52;102427.59;;;-15.73;84.34
76590;BME280;65471;55.908;37.880;2022-12-01T03:41:24;102429.31;;;-15.59;83.97
76590;BME280;65471;55.908;37.880;2022-12-01T03:43:55;102428.44;;;-15.68;83.78
76590;BME280;65471;55.908;37.880;2022-12-01T03:46:40;102425.84;;;-15.72;83.64
76590;BME280;65471;55.908;37.880;2022-12-01T03:49:10;102426.72;;;-15.76;83.78
76590;BME280;65471;55.908;37.880;2022-12-01T03:54:32;102409.47;;;-15.53;84.81
76590;BME280;65471;55.908;37.880;2022-12-01T03:57:06;102418.97;;;-15.24;83.99
76590;BME280;65471;55.908;37.880;2022-12-01T03:59:36;102419.81;;;-15.45;84.01
76590;BME280;65471;55.908;37.880;2022-12-01T04:02:05;102420.69;;;-15.26;83.73
76590;BME280;65471;55.908;37.880;2022-12-01T04:04:33;102418.94;;;-15.38;83.63
76590;BME280;65471;55.908;37.880;2022-12-01T04:06:59;102416.34;;;-15.56;84.32
76590;BME280;65471;55.908;37.880;2022-12-01T04:09:26;102418.97;;;-15.69;83.51
76590;BME280;65471;55.908;37.880;2022-12-01T04:11:53;102419.81;;;-15.70;83.99
76590;BME280;65471;55.908;37.880;2022-12-01T04:14:39;102417.22;;;-15.88;84.36
76590;BME280;65471;55.908;37.880;2022-12-01T04:17:05;102418.06;;;-15.72;84.01
76590;BME280;65471;55.908;37.880;2022-12-01T04:19:32;102419.78;;;-15.76;84.81
76590;BME280;65471;55.908;37.880;2022-12-01T04:21:59;102425.84;;;-15.83;82.80
76590;BME280;65471;55.908;37.880;2022-12-01T04:24:26;102418.06;;;-15.99;83.91
76590;BME280;65471;55.908;37.880;2022-12-01T04:26:52;102418.94;;;-15.75;84.24
76590;BME280;65471;55.908;37.880;2022-12-01T04:29:19;102420.69;;;-15.77;83.67
76590;BME280;65471;55.908;37.880;2022-12-01T04:31:46;102425.84;;;-15.89;84.02
76590;BME280;65471;55.908;37.880;2022-12-01T04:34:12;102427.56;;;-16.04;83.70
76590;BME280;65471;55.908;37.880;2022-12-01T04:36:39;102433.59;;;-16.06;83.42
76590;BME280;65471;55.908;37.880;2022-12-01T04:39:06;102437.94;;;-15.98;82.93
76590;BME280;65471;55.908;37.880;2022-12-01T04:41:33;102441.41;;;-15.92;82.48
76590;BME280;65471;55.908;37.880;2022-12-01T04:43:59;102435.25;;;-16.27;82.66
76590;BME280;65471;55.908;37.880;2022-12-01T04:46:26;102437.88;;;-16.22;82.88
76590;BME280;65471;55.908;37.880;2022-12-01T04:48:53;102426.66;;;-16.12;82.29
76590;BME280;65471;55.908;37.880;2022-12-01T04:51:20;102434.44;;;-16.12;83.34
76590;BME280;65471;55.908;37.880;2022-12-01T04:53:49;102429.25;;;-16.15;83.13
76590;BME280;65471;55.908;37.880;2022-12-01T04:56:16;102435.28;;;-16.25;82.69
76590;BME280;65471;55.908;37.880;2022-12-01T04:58:43;102427.59;;;-15.62;84.25
76590;BME280;65471;55.908;37.880;2022-12-01T05:01:12;102440.56;;;-15.74;83.51
76590;BME280;65471;55.908;37.880;2022-12-01T05:03:41;102438.84;;;-15.80;83.04
76590;BME280;65471;55.908;37.880;2022-12-01T05:06:14;102443.94;;;-16.06;84.33
76590;BME280;65471;55.908;37.880;2022-12-01T05:08:41;102453.50;;;-15.91;83.89
76590;BME280;65471;55.908;37.880;2022-12-01T05:11:09;102457.72;;;-16.24;84.66
76590;BME280;65471;55.908;37.880;2022-12-01T05:13:42;102454.19;;;-16.43;83.59
76590;BME280;65471;55.908;37.880;2022-12-01T05:16:18;102450.03;;;-15.73;84.18
76590;BME280;65471;55.908;37.880;2022-12-01T05:18:56;102444.78;;;-16.12;84.23
76590;BME280;65471;55.908;37.880;2022-12-01T05:21:42;102440.50;;;-16.05;83.85
76590;BME280;65471;55.908;37.880;2022-12-01T05:24:11;102438.81;;;-15.91;84.11
76590;BME280;65471;55.908;37.880;2022-12-01T05:26:38;102434.53;;;-15.87;83.19
76590;BME280;65471;55.908;37.880;2022-12-01T05:29:05;102440.50;;;-16.08;83.12
76590;BME280;65471;55.908;37.880;2022-12-01T05:31:33;102451.72;;;-16.14;82.86
76590;BME280;65471;55.908;37.880;2022-12-01T05:34:00;102444.78;;;-16.17;82.15
76590;BME280;65471;55.908;37.880;2022-12-01T05:36:27;102452.56;;;-16.09;82.10
76590;BME280;65471;55.908;37.880;2022-12-01T05:38:53;102453.47;;;-16.07;82.72
76590;BME280;65471;55.908;37.880;2022-12-01T05:41:20;102448.16;;;-16.35;83.19
76590;BME280;65471;55.908;37.880;2022-12-01T05:43:47;102446.50;;;-16.22;83.38
76590;BME280;65471;55.908;37.880;2022-12-01T05:46:14;102451.56;;;-16.45;83.69
76590;BME280;65471;55.908;37.880;2022-12-01T05:48:41;102449.81;;;-16.49;83.72
76590;BME280;65471;55.908;37.880;2022-12-01T05:51:09;102448.22;;;-16.25;84.07
76590;BME280;65471;55.908;37.880;2022-12-01T05:53:37;102451.72;;;-16.02;83.70
76590;BME280;65471;55.908;37.880;2022-12-01T05:56:05;102449.13;;;-16.05;83.56
76590;BME280;65471;55.908;37.880;2022-12-01T05:58:32;102458.66;;;-15.98;83.94
76590;BME280;65471;55.908;37.880;2022-12-01T06:00:59;102463.84;;;-16.01;83.53
76590;BME280;65471;55.908;37.880;2022-12-01T06:03:26;102472.47;;;-16.03;83.34
76590;BME280;65471;55.908;37.880;2022-12-01T06:05:53;102470.75;;;-16.06;82.54
76590;BME280;65471;55.908;37.880;2022-12-01T06:08:20;102471.63;;;-15.94;84.15
76590;BME280;65471;55.908;37.880;2022-12-01T06:10:46;102459.59;;;-15.82;84.12
76590;BME280;65471;55.908;37.880;2022-12-01T06:13:13;102474.19;;;-16.07;82.98
76590;BME280;65471;55.908;37.880;2022-12-01T06:15:40;102469.91;;;-15.95;82.02
76590;BME280;65471;55.908;37.880;2022-12-01T06:18:07;102476.81;;;-15.98;82.80
76590;BME280;65471;55.908;37.880;2022-12-01T06:20:34;102473.34;;;-15.96;82.98
76590;BME280;65471;55.908;37.880;2022-12-01T06:23:01;102482.91;;;-15.68;83.45
76590;BME280;65471;55.908;37.880;2022-12-01T06:25:28;102478.59;;;-15.64;83.26
76590;BME280;65471;55.908;37.880;2022-12-01T06:27:56;102488.97;;;-15.66;82.85
76590;BME280;65471;55.908;37.880;2022-12-01T06:30:24;102485.47;;;-15.85;83.19
76590;BME280;65471;55.908;37.880;2022-12-01T06:32:51;102483.75;;;-15.86;83.24
76590;BME280;65471;55.908;37.880;2022-12-01T06:35:18;102483.75;;;-15.76;83.74
76590;BME280;65471;55.908;37.880;2022-12-01T06:37:45;102485.53;;;-15.55;83.64
76590;BME280;65471;55.908;37.880;2022-12-01T06:40:12;102485.47;;;-15.75;83.58
76590;BME280;65471;55.908;37.880;2022-12-01T06:42:39;102492.44;;;-15.43;82.82
76590;BME280;65471;55.908;37.880;2022-12-01T06:45:06;102485.53;;;-15.63;83.86
76590;BME280;65471;55.908;37.880;2022-12-01T06:47:33;102476.84;;;-15.67;84.40
76590;BME280;65471;55.908;37.880;2022-12-01T06:50:00;102482.09;;;-15.37;83.87
76590;BME280;65471;55.908;37.880;2022-12-01T06:52:27;102472.56;;;-15.54;83.76
76590;BME280;65471;55.908;37.880;2022-12-01T06:54:54;102488.13;;;-15.58;83.82
76590;BME280;65471;55.908;37.880;2022-12-01T06:57:21;102478.63;;;-15.49;84.62
76590;BME280;65471;55.908;37.880;2022-12-01T06:59:48;102482.06;;;-15.48;84.23
76590;BME280;65471;55.908;37.880;2022-12-01T07:02:15;102485.56;;;-15.23;83.56
76590;BME280;65471;55.908;37.880;2022-12-01T07:04:42;102483.81;;;-15.15;83.76
76590;BME280;65471;55.908;37.880;2022-12-01T07:07:09;102489.00;;;-15.16;83.78
76590;BME280;65471;55.908;37.880;2022-12-01T07:09:38;102482.97;;;-15.06;84.26
76590;BME280;65471;55.908;37.880;2022-12-01T07:12:05;102484.69;;;-15.06;83.46
76590;BME280;65471;55.908;37.880;2022-12-01T07:14:32;102488.16;;;-15.17;84.06
76590;BME280;65471;55.908;37.880;2022-12-01T07:16:59;102490.75;;;-14.98;84.04
76590;BME280;65471;55.908;37.880;2022-12-01T07:19:25;102487.25;;;-14.72;84.18
76590;BME280;65471;55.908;37.880;2022-12-01T07:21:52;102490.72;;;-14.84;83.83
76590;BME280;65471;55.908;37.880;2022-12-01T07:24:19;102487.25;;;-14.72;83.56
76590;BME280;65471;55.908;37.880;2022-12-01T07:26:45;102491.56;;;-14.70;83.30
76590;BME280;65471;55.908;37.880;2022-12-01T07:29:13;102488.91;;;-14.59;83.11
76590;BME280;65471;55.908;37.880;2022-12-01T07:31:40;102490.69;;;-14.64;83.82
76590;BME280;65471;55.908;37.880;2022-12-01T07:34:10;102498.41;;;-14.44;83.23
76590;BME280;65471;55.908;37.880;2022-12-01T07:36:37;102500.16;;;-14.51;82.93
76590;BME280;65471;55.908;37.880;2022-12-01T07:39:06;102496.69;;;-14.61;82.46
76590;BME280;65471;55.908;37.880;2022-12-01T07:41:34;102499.31;;;-14.54;82.66
76590;BME280;65471;55.908;37.880;2022-12-01T07:44:01;102494.97;;;-14.55;83.02
76590;BME280;65471;55.908;37.880;2022-12-01T07:46:28;102491.50;;;-14.51;83.60
76590;BME280;65471;55.908;37.880;2022-12-01T07:48:55;102495.78;;;-14.39;84.16
76590;BME280;65471;55.908;37.880;2022-12-01T07:51:23;102488.00;;;-14.41;84.22
76590;BME280;65471;55.908;37.880;2022-12-01T07:53:52;102495.78;;;-14.27;83.77
76590;BME280;65471;55.908;37.880;2022-12-01T07:56:20;102497.50;;;-14.28;84.00
76590;BME280;65471;55.908;37.880;2022-12-01T07:58:47;102487.09;;;-14.23;83.48
76590;BME280;65471;55.908;37.880;2022-12-01T08:01:19;102488.81;;;-14.17;84.07
76590;BME280;65471;55.908;37.880;2022-12-01T08:03:48;102487.84;;;-13.95;84.36
76590;BME280;65471;55.908;37.880;2022-12-01T08:06:16;102485.28;;;-14.04;84.83
76590;BME280;65471;55.908;37.880;2022-12-01T08:08:43;102471.44;;;-14.06;84.97
76590;BME280;65471;55.908;37.880;2022-12-01T08:11:16;102487.84;;;-13.99;84.58
76590;BME280;65471;55.908;37.880;2022-12-01T08:13:43;102486.94;;;-13.92;84.55
76590;BME280;65471;55.908;37.880;2022-12-01T08:16:15;102494.75;;;-13.95;84.29
76590;BME280;65471;55.908;37.880;2022-12-01T08:18:42;102489.47;;;-13.78;83.87
76590;BME280;65471;55.908;37.880;2022-12-01T08:21:12;102483.47;;;-13.90;84.42
76590;BME280;65471;55.908;37.880;2022-12-01T08:23:39;102485.16;;;-13.78;84.82
76590;BME280;65471;55.908;37.880;2022-12-01T08:26:14;102480.78;;;-13.74;84.52
76590;BME280;65471;55.908;37.880;2022-12-01T08:28:42;102479.84;;;-13.62;84.37
76590;BME280;65471;55.908;37.880;2022-12-01T08:31:14;102480.81;;;-13.77;84.94
76590;BME280;65471;55.908;37.880;2022-12-01T08:33:42;102477.31;;;-13.73;85.00
76590;BME280;65471;55.908;37.880;2022-12-01T08:36:09;102473.72;;;-13.55;84.64
76590;BME280;65471;55.908;37.880;2022-12-01T08:38:36;102468.44;;;-13.41;84.92
76590;BME280;65471;55.908;37.880;2022-12-01T08:41:05;102464.94;;;-13.39;84.57
76590;BME280;65471;55.908;37.880;2022-12-01T08:43:32;102466.66;;;-13.36;84.71
76590;BME280;65471;55.908;37.880;2022-12-01T08:46:19;102464.94;;;-13.37;85.27
76590;BME280;65471;55.908;37.880;2022-12-01T08:48:46;102458.00;;;-13.35;85.20
76590;BME280;65471;55.908;37.880;2022-12-01T08:51:15;102452.81;;;-13.41;84.52
76590;BME280;65471;55.908;37.880;2022-12-01T08:53:45;102455.31;;;-13.30;84.63
76590;BME280;65471;55.908;37.880;2022-12-01T08:56:25;102457.22;;;-13.46;85.09
76590;BME280;65471;55.908;37.880;2022-12-01T08:58:53;102458.09;;;-13.50;84.77
76590;BME280;65471;55.908;37.880;2022-12-01T09:01:20;102457.19;;;-13.45;85.12
76590;BME280;65471;55.908;37.880;2022-12-01T09:03:47;102455.31;;;-13.29;84.92
76590;BME280;65471;55.908;37.880;2022-12-01T09:06:19;102451.06;;;-13.36;84.58
76590;BME280;65471;55.908;37.880;2022-12-01T09:08:46;102447.47;;;-13.26;84.49
76590;BME280;65471;55.908;37.880;2022-12-01T09:11:16;102449.97;;;-13.13;84.41
76590;BME280;65471;55.908;37.880;2022-12-01T09:13:44;102443.94;;;-13.19;84.52
76590;BME280;65471;55.908;37.880;2022-12-01T09:16:18;102449.94;;;-13.09;84.87
76590;BME280;65471;55.908;37.880;2022-12-01T09:18:46;102449.03;;;-13.06;84.82
76590;BME280;65471;55.908;37.880;2022-12-01T09:21:23;102453.34;;;-13.02;84.30
76590;BME280;65471;55.908;37.880;2022-12-01T09:23:51;102450.75;;;-13.02;84.90
76590;BME280;65471;55.908;37.880;2022-12-01T09:26:19;102459.16;;;-12.77;84.61
76590;BME280;65471;55.908;37.880;2022-12-01T09:28:47;102459.25;;;-12.83;84.25
76590;BME280;65471;55.908;37.880;2022-12-01T09:31:15;102456.81;;;-13.02;84.48
76590;BME280;65471;55.908;37.880;2022-12-01T09:33:42;102455.03;;;-12.95;85.04
76590;BME280;65471;55.908;37.880;2022-12-01T09:36:10;102450.56;;;-12.82;84.40
76590;BME280;65471;55.908;37.880;2022-12-01T09:38:37;102454.84;;;-12.76;84.92
76590;BME280;65471;55.908;37.880;2022-12-01T09:41:08;102450.31;;;-12.60;84.80
76590;BME280;65471;55.908;37.880;2022-12-01T09:46:30;102441.47;;;-12.45;84.82
76590;BME280;65471;55.908;37.880;2022-12-01T09:49:00;102443.34;;;-12.60;84.87
76590;BME280;65471;55.908;37.880;2022-12-01T09:51:28;102446.78;;;-12.53;85.32
76590;BME280;65471;55.908;37.880;2022-12-01T09:53:57;102437.03;;;-12.39;84.69
76590;BME280;65471;55.908;37.880;2022-12-01T09:56:31;102444.94;;;-12.45;84.68
76590;BME280;65471;55.908;37.880;2022-12-01T09:59:05;102447.91;;;-12.04;83.70
76590;BME280;65471;55.908;37.880;2022-12-01T10:01:37;102449.78;;;-12.12;83.24
76590;BME280;65471;55.908;37.880;2022-12-01T10:04:12;102441.75;;;-11.99;83.12
76590;BME280;65471;55.908;37.880;2022-12-01T10:07:00;102442.41;;;-11.86;82.34
76590;BME280;65471;55.908;37.880;2022-12-01T10:10:03;102438.81;;;-11.75;82.11
76590;BME280;65471;55.908;37.880;2022-12-01T10:12:33;102446.59;;;-11.72;81.96
76590;BME280;65471;55.908;37.880;2022-12-01T10:18:11;102446.63;;;-11.74;81.99
76590;BME280;65471;55.908;37.880;2022-12-01T10:20:51;102433.09;;;-12.01;83.86
76590;BME280;65471;55.908;37.880;2022-12-01T10:25:58;102447.78;;;-11.93;85.03
76590;BME280;65471;55.908;37.880;2022-12-01T10:28:52;102443.53;;;-12.01;86.01
76590;BME280;65471;55.908;37.880;2022-12-01T10:31:30;102437.25;;;-11.89;85.34
76590;BME280;65471;55.908;37.880;2022-12-01T10:34:31;102440.84;;;-11.96;85.27
76590;BME280;65471;55.908;37.880;2022-12-01T10:36:58;102436.50;;;-11.94;86.02
76590;BME280;65471;55.908;37.880;2022-12-01T10:39:40;102438.41;;;-12.07;86.11
76590;BME280;65471;55.908;37.880;2022-12-01T10:42:20;102438.06;;;-11.85;85.75
76590;BME280;65471;55.908;37.880;2022-12-01T10:44:52;102432.19;;;-11.96;86.23
76590;BME280;65471;55.908;37.880;2022-12-01T10:47:23;102433.19;;;-12.10;86.00
76590;BME280;65471;55.908;37.880;2022-12-01T10:49:50;102427.13;;;-12.10;86.33
76590;BME280;65471;55.908;37.880;2022-12-01T10:52:35;102427.97;;;-12.07;85.99
76590;BME280;65471;55.908;37.880;2022-12-01T10:55:22;102426.25;;;-12.08;86.10
76590;BME280;65471;55.908;37.880;2022-12-01T10:57:51;102429.66;;;-12.04;86.57
76590;BME280;65471;55.908;37.880;2022-12-01T11:00:21;102435.78;;;-12.08;86.25
76590;BME280;65471;55.908;37.880;2022-12-01T11:03:21;102427.69;;;-11.88;85.37
76590;BME280;65471;55.908;37.880;2022-12-01T11:05:55;102430.50;;;-12.02;85.74
76590;BME280;65471;55.908;37.880;2022-12-01T11:11:28;102436.41;;;-11.91;86.00
76590;BME280;65471;55.908;37.880;2022-12-01T11:13:57;102428.72;;;-11.99;86.34
76590;BME280;65471;55.908;37.880;2022-12-01T11:16:54;102421.84;;;-12.06;86.51
76590;BME280;65471;55.908;37.880;2022-12-01T11:19:31;102423.66;;;-12.09;86.58
76590;BME280;65471;55.908;37.880;2022-12-01T11:22:00;102432.47;;;-12.18;86.77
76590;BME280;65471;55.908;37.880;2022-12-01T11:27:22;102431.38;;;-12.03;86.32
76590;BME280;65471;55.908;37.880;2022-12-01T11:29:53;102442.63;;;-11.98;86.09
76590;BME280;65471;55.908;37.880;2022-12-01T11:32:23;102433.94;;;-12.00;85.90
76590;BME280;65471;55.908;37.880;2022-12-01T11:35:03;102431.44;;;-12.06;85.96
76590;BME280;65471;55.908;37.880;2022-12-01T11:37:43;102439.38;;;-12.16;86.42
76590;BME280;65471;55.908;37.880;2022-12-01T11:40:37;102423.34;;;-11.89;85.66
76590;BME280;65471;55.908;37.880;2022-12-01T11:43:27;102430.31;;;-11.91;85.26
76590;BME280;65471;55.908;37.880;2022-12-01T11:45:56;102432.94;;;-11.93;85.70
76590;BME280;65471;55.908;37.880;2022-12-01T11:48:29;102426.06;;;-11.94;85.77
76590;BME280;65471;55.908;37.880;2022-12-01T11:51:01;102435.72;;;-12.02;85.66
76590;BME280;65471;55.908;37.880;2022-12-01T11:56:27;102439.09;;;-11.94;85.57
76590;BME280;65471;55.908;37.880;2022-12-01T11:59:03;102432.19;;;-11.98;86.03
76590;BME280;65471;55.908;37.880;2022-12-01T12:01:58;102435.72;;;-12.02;85.67
76590;BME280;65471;55.908;37.880;2022-12-01T12:04:52;102434.84;;;-12.01;86.07
76590;BME280;65471;55.908;37.880;2022-12-01T12:19:09;102443.84;;;-11.65;84.71
76590;BME280;65471;55.908;37.880;2022-12-01T12:22:03;102444.69;;;-11.61;84.33
76590;BME280;65471;55.908;37.880;2022-12-01T12:30:45;102443.00;;;-11.65;84.48
76590;BME280;65471;55.908;37.880;2022-12-01T12:33:42;102448.22;;;-11.65;85.22
76590;BME280;65471;55.908;37.880;2022-12-01T12:36:38;102455.44;;;-11.83;84.61
76590;BME280;65471;55.908;37.880;2022-12-01T12:41:54;102458.03;;;-11.81;84.51
76590;BME280;65471;55.908;37.880;2022-12-01T12:52:42;102435.25;;;-11.71;84.25
76590;BME280;65471;55.908;37.880;2022-12-01T12:55:25;102436.00;;;-12.24;84.74
76590;BME280;65471;55.908;37.880;2022-12-01T12:58:02;102434.75;;;-11.95;85.22
76590;BME280;65471;55.908;37.880;2022-12-01T13:00:41;102435.28;;;-11.74;84.56
76590;BME280;65471;55.908;37.880;2022-12-01T13:04:20;102426.00;;;-11.92;85.31
76590;BME280;65471;55.908;37.880;2022-12-01T13:06:57;102425.22;;;-11.98;85.02
76590;BME280;65471;55.908;37.880;2022-12-01T13:09:37;102417.44;;;-12.01;84.64
76590;BME280;65471;55.908;37.880;2022-12-01T13:12:30;102417.28;;;-11.91;84.73
76590;BME280;65471;55.908;37.880;2022-12-01T13:15:18;102420.31;;;-12.21;85.38
76590;BME280;65471;55.908;37.880;2022-12-01T13:17:56;102415.88;;;-12.12;85.48
76590;BME280;65471;55.908;37.880;2022-12-01T13:20:26;102422.72;;;-12.05;85.26
76590;BME280;65471;55.908;37.880;2022-12-01T13:22:56;102422.97;;;-12.22;85.73
76590;BME280;65471;55.908;37.880;2022-12-01T13:25:32;102424.56;;;-12.13;85.09
76590;BME280;65471;55.908;37.880;2022-12-01T13:28:02;102421.97;;;-12.13;85.32
76590;BME280;65471;55.908;37.880;2022-12-01T13:30:31;102430.72;;;-12.18;85.97
76590;BME280;65471;55.908;37.880;2022-12-01T13:33:13;102430.03;;;-12.34;85.84
76590;BME280;65471;55.908;37.880;2022-12-01T13:35:41;102437.91;;;-12.37;84.75
76590;BME280;65471;55.908;37.880;2022-12-01T13:38:26;102436.25;;;-12.42;84.11
76590;BME280;65471;55.908;37.880;2022-12-01T13:44:03;102445.16;;;-12.65;85.08
76590;BME280;65471;55.908;37.880;2022-12-01T13:46:50;102447.06;;;-12.79;84.28
76590;BME280;65471;55.908;37.880;2022-12-01T13:49:40;102432.50;;;-13.00;85.81
76590;BME280;65471;55.908;37.880;2022-12-01T14:00:32;102440.13;;;-12.80;85.78
76590;BME280;65471;55.908;37.880;2022-12-01T14:05:45;102443.34;;;-12.60;85.50
76590;BME280;65471;55.908;37.880;2022-12-01T14:08:24;102433.78;;;-12.56;85.92
76590;BME280;65471;55.908;37.880;2022-12-01T14:10:56;102433.72;;;-12.52;85.86
76590;BME280;65471;55.908;37.880;2022-12-01T14:13:24;102433.75;;;-12.55;86.25
76590;BME280;65471;55.908;37.880;2022-12-01T14:15:58;102420.00;;;-12.68;85.82
76590;BME280;65471;55.908;37.880;2022-12-01T14:18:30;102424.47;;;-12.79;86.63